createdAt,value
2023-04-21T00:00:16.632Z,32.00
2023-04-21T00:01:11.887Z,32.30
2023-04-21T00:02:07.037Z,33.40
2023-04-21T00:03:02.107Z,37.80
2023-04-21T00:03:57.142Z,32.70
2023-04-21T00:04:52.193Z,35.70
2023-04-21T00:05:47.402Z,31.20
2023-04-21T00:06:42.302Z,32.40
2023-04-21T00:07:37.186Z,32.60
2023-04-21T00:08:32.258Z,30.60
2023-04-21T00:09:27.443Z,38.10
2023-04-21T00:10:22.387Z,31.00
2023-04-21T00:11:17.508Z,33.00
2023-04-21T00:12:12.621Z,32.30
2023-04-21T00:13:07.733Z,31.80
2023-04-21T00:14:02.795Z,33.10
2023-04-21T00:14:57.921Z,35.80
2023-04-21T00:15:52.987Z,36.10
2023-04-21T00:16:48.130Z,30.20
2023-04-21T00:17:43.110Z,32.60
2023-04-21T00:18:38.343Z,35.00
2023-04-21T00:19:33.424Z,31.30
2023-04-21T00:20:28.680Z,38.10
2023-04-21T00:21:23.795Z,33.20
2023-04-21T00:22:18.977Z,37.60
2023-04-21T00:23:13.912Z,33.00
2023-04-21T00:24:09.081Z,33.20
2023-04-21T00:25:04.179Z,32.40
2023-04-21T00:25:59.266Z,33.20
2023-04-21T00:26:54.407Z,34.10
2023-04-21T00:27:49.261Z,33.30
2023-04-21T00:28:44.349Z,34.00
2023-04-21T00:29:39.458Z,34.60
2023-04-21T00:30:34.483Z,36.20
2023-04-21T00:31:29.811Z,39.40
2023-04-21T00:32:24.627Z,37.40
2023-04-21T00:33:19.862Z,42.00
2023-04-21T00:34:15.090Z,46.10
2023-04-21T00:35:10.183Z,47.70
2023-04-21T00:36:05.358Z,43.50
2023-04-21T00:37:00.320Z,49.90
2023-04-21T00:37:55.559Z,44.00
2023-04-21T00:38:50.515Z,49.30
2023-04-21T00:39:45.614Z,44.10
2023-04-21T00:40:40.747Z,45.70
2023-04-21T00:41:36.130Z,44.90
2023-04-21T00:42:31.114Z,46.50
2023-04-21T00:43:26.331Z,44.20
2023-04-21T00:44:21.437Z,43.30
2023-04-21T00:45:16.552Z,46.90
2023-04-21T00:46:11.852Z,45.00
2023-04-21T00:47:06.780Z,47.60
2023-04-21T00:48:01.881Z,43.90
2023-04-21T00:48:56.863Z,46.00
2023-04-21T00:49:52.017Z,46.60
2023-04-21T00:50:46.951Z,46.00
2023-04-21T00:51:42.049Z,41.40
2023-04-21T00:52:37.060Z,47.00
2023-04-21T00:53:32.027Z,45.70
2023-04-21T00:54:27.161Z,45.30
2023-04-21T00:55:22.229Z,46.30
2023-04-21T00:57:42.963Z,36.90
2023-04-21T00:58:38.855Z,34.40
2023-04-21T00:59:33.994Z,39.90
2023-04-21T01:00:28.454Z,38.30
2023-04-21T01:01:23.874Z,40.20
2023-04-21T01:02:18.895Z,39.90
2023-04-21T01:03:14.162Z,44.50
2023-04-21T01:04:09.380Z,41.90
2023-04-21T01:05:04.376Z,40.50
2023-04-21T01:05:59.633Z,39.80
2023-04-21T01:06:54.821Z,41.30
2023-04-21T01:07:50.183Z,44.90
2023-04-21T01:08:45.268Z,37.90
2023-04-21T01:09:40.494Z,35.40
2023-04-21T01:10:35.712Z,37.10
2023-04-21T01:11:31.111Z,37.10
2023-04-21T01:12:26.181Z,38.60
2023-04-21T01:13:21.425Z,37.70
2023-04-21T01:14:16.630Z,36.40
2023-04-21T01:15:11.835Z,37.70
2023-04-21T01:16:07.097Z,36.80
2023-04-21T01:17:02.384Z,35.60
2023-04-21T01:17:57.608Z,38.60
2023-04-21T01:18:52.691Z,38.00
2023-04-21T01:19:47.903Z,33.80
2023-04-21T01:20:43.192Z,36.40
2023-04-21T01:21:38.257Z,40.40
2023-04-21T01:22:33.483Z,43.30
2023-04-21T01:23:28.685Z,37.00
2023-04-21T01:24:23.910Z,35.50
2023-04-21T01:25:19.110Z,37.60
2023-04-21T01:26:14.491Z,38.50
2023-04-21T01:27:09.578Z,35.50
2023-04-21T01:28:04.937Z,39.70
2023-04-21T01:29:00.032Z,35.50
2023-04-21T01:29:55.265Z,38.80
2023-04-21T01:30:50.655Z,34.80
2023-04-21T01:31:45.771Z,36.50
2023-04-21T01:32:40.958Z,38.30
2023-04-21T01:33:36.194Z,34.00
2023-04-21T01:34:31.376Z,32.50
2023-04-21T01:35:26.594Z,41.90
2023-04-21T01:36:21.968Z,37.60
2023-04-21T01:37:17.051Z,33.90
2023-04-21T01:38:12.371Z,39.40
2023-04-21T01:39:07.488Z,38.70
2023-04-21T01:40:02.726Z,37.20
2023-04-21T01:40:57.990Z,36.00
2023-04-21T01:41:53.195Z,34.90
2023-04-21T01:42:48.429Z,37.40
2023-04-21T01:43:43.637Z,34.60
2023-04-21T01:44:38.854Z,33.40
2023-04-21T01:45:34.103Z,40.70
2023-04-21T01:46:29.416Z,40.20
2023-04-21T01:47:24.479Z,40.60
2023-04-21T01:48:19.833Z,41.00
2023-04-21T01:49:14.919Z,43.50
2023-04-21T01:50:10.158Z,37.40
2023-04-21T01:51:05.410Z,42.00
2023-04-21T01:52:00.669Z,37.70
2023-04-21T01:52:55.862Z,42.30
2023-04-21T01:53:51.101Z,35.90
2023-04-21T01:54:46.422Z,36.60
2023-04-21T01:55:41.532Z,35.60
2023-04-21T01:56:36.938Z,40.90
2023-04-21T01:57:32.006Z,41.30
2023-04-21T01:58:27.328Z,42.50
2023-04-21T01:59:22.470Z,36.20
2023-04-21T02:00:17.672Z,40.70
2023-04-21T02:01:12.944Z,36.20
2023-04-21T02:02:08.293Z,43.20
2023-04-21T02:03:03.470Z,38.30
2023-04-21T02:03:58.734Z,34.30
2023-04-21T02:04:53.743Z,32.30
2023-04-21T02:05:48.915Z,35.00
2023-04-21T02:06:44.213Z,39.80
2023-04-21T02:07:39.304Z,39.20
2023-04-21T02:08:34.657Z,35.00
2023-04-21T02:09:29.740Z,41.40
2023-04-21T02:10:24.969Z,38.50
2023-04-21T02:11:20.192Z,40.50
2023-04-21T02:12:15.595Z,41.50
2023-04-21T02:13:10.531Z,35.70
2023-04-21T02:14:05.781Z,38.70
2023-04-21T02:15:00.974Z,37.20
2023-04-21T02:16:09.647Z,39.10
2023-04-21T02:16:52.481Z,42.20
2023-04-21T02:17:46.730Z,47.50
2023-04-21T02:18:41.792Z,35.90
2023-04-21T02:19:36.934Z,36.00
2023-04-21T02:20:32.129Z,35.20
2023-04-21T02:21:27.378Z,47.00
2023-04-21T02:22:22.607Z,39.30
2023-04-21T02:23:17.821Z,45.10
2023-04-21T02:24:13.047Z,59.10
2023-04-21T02:25:08.250Z,39.70
2023-04-21T02:26:03.459Z,36.00
2023-04-21T02:26:58.861Z,39.50
2023-04-21T02:27:53.913Z,46.40
2023-04-21T02:28:49.292Z,44.70
2023-04-21T02:29:44.376Z,49.40
2023-04-21T02:30:41.461Z,52.70
2023-04-21T02:31:43.146Z,41.70
2023-04-21T02:32:31.192Z,64.90
2023-04-21T02:33:25.296Z,63.20
2023-04-21T02:34:20.435Z,66.00
2023-04-21T02:35:15.646Z,67.00
2023-04-21T02:36:10.969Z,69.60
2023-04-21T02:37:06.033Z,62.80
2023-04-21T02:38:01.392Z,60.90
2023-04-21T02:38:56.486Z,33.50
2023-04-21T02:39:51.698Z,51.30
2023-04-21T02:40:46.914Z,35.10
2023-04-21T02:41:42.304Z,37.40
2023-04-21T02:42:37.369Z,44.80
2023-04-21T02:43:32.619Z,37.20
2023-04-21T02:44:27.834Z,36.10
2023-04-21T02:45:23.054Z,39.30
2023-04-21T02:46:18.310Z,32.30
2023-04-21T02:47:13.538Z,29.50
2023-04-21T02:48:08.874Z,36.60
2023-04-21T02:49:03.981Z,32.30
2023-04-21T02:49:59.180Z,37.10
2023-04-21T02:50:54.441Z,33.60
2023-04-21T02:51:49.813Z,38.10
2023-04-21T02:52:44.918Z,37.50
2023-04-21T02:53:40.138Z,33.40
2023-04-21T02:54:35.371Z,38.00
2023-04-21T02:55:30.595Z,45.20
2023-04-21T02:56:25.998Z,60.50
2023-04-21T02:57:21.065Z,41.50
2023-04-21T02:58:16.422Z,47.50
2023-04-21T02:59:11.513Z,37.20
2023-04-21T03:00:06.759Z,57.10
2023-04-21T03:01:02.008Z,47.80
2023-04-21T03:01:57.378Z,33.20
2023-04-21T03:02:52.638Z,62.10
2023-04-21T03:03:47.705Z,49.50
2023-04-21T03:04:42.967Z,53.60
2023-04-21T03:05:38.138Z,36.40
2023-04-21T03:06:33.527Z,49.40
2023-04-21T03:07:28.622Z,35.50
2023-04-21T03:08:23.930Z,35.40
2023-04-21T03:09:19.306Z,53.50
2023-04-21T03:10:14.300Z,58.50
2023-04-21T03:11:09.554Z,35.50
2023-04-21T03:12:04.784Z,34.60
2023-04-21T03:12:59.978Z,35.40
2023-04-21T03:13:55.250Z,29.10
2023-04-21T03:14:50.455Z,34.10
2023-04-21T03:15:45.686Z,34.80
2023-04-21T03:16:41.146Z,37.90
2023-04-21T03:17:36.134Z,35.10
2023-04-21T03:18:31.428Z,33.30
2023-04-21T03:19:26.551Z,38.50
2023-04-21T03:20:21.768Z,30.50
2023-04-21T03:21:17.033Z,34.90
2023-04-21T03:22:12.253Z,37.70
2023-04-21T03:23:07.478Z,60.00
2023-04-21T03:24:02.732Z,42.80
2023-04-21T03:24:57.935Z,57.70
2023-04-21T03:25:53.155Z,79.30
2023-04-21T03:26:48.499Z,101.70
2023-04-21T03:27:43.640Z,73.40
2023-04-21T03:28:39.004Z,123.10
2023-04-21T03:29:34.159Z,143.40
2023-04-21T03:30:29.468Z,74.70
2023-04-21T03:31:24.807Z,135.80
2023-04-21T03:32:20.051Z,54.60
2023-04-21T03:33:15.054Z,57.00
2023-04-21T03:34:10.313Z,51.10
2023-04-21T03:35:05.524Z,37.70
2023-04-21T03:36:00.889Z,29.70
2023-04-21T03:36:56.145Z,38.40
2023-04-21T03:37:51.231Z,50.40
2023-04-21T03:38:46.701Z,39.30
2023-04-21T03:39:41.679Z,53.30
2023-04-21T03:40:36.863Z,36.50
2023-04-21T03:41:32.280Z,28.90
2023-04-21T03:42:27.350Z,33.30
2023-04-21T03:43:22.562Z,56.70
2023-04-21T03:44:17.778Z,39.50
2023-04-21T03:45:13.040Z,41.90
2023-04-21T03:46:08.366Z,30.10
2023-04-21T03:47:04.580Z,31.70
2023-04-21T03:47:59.865Z,30.40
2023-04-21T03:48:55.035Z,33.80
2023-04-21T03:49:50.279Z,39.70
2023-04-21T03:50:45.508Z,37.70
2023-04-21T03:51:40.647Z,37.00
2023-04-21T03:52:35.810Z,37.20
2023-04-21T03:53:30.752Z,33.60
2023-04-21T03:54:25.888Z,57.40
2023-04-21T03:55:20.949Z,40.40
2023-04-21T03:56:16.083Z,34.30
2023-04-21T03:57:11.177Z,30.90
2023-04-21T03:58:06.177Z,36.80
2023-04-21T03:59:01.147Z,29.30
2023-04-21T03:59:56.273Z,33.50
2023-04-21T04:00:51.678Z,31.50
2023-04-21T04:01:46.905Z,37.40
2023-04-21T04:02:42.020Z,42.10
2023-04-21T04:03:37.128Z,32.80
2023-04-21T04:04:32.515Z,28.80
2023-04-21T04:05:27.176Z,32.50
2023-04-21T04:06:22.201Z,35.70
2023-04-21T04:07:17.250Z,31.90
2023-04-21T04:08:12.257Z,42.60
2023-04-21T04:09:07.392Z,43.30
2023-04-21T04:10:02.397Z,25.80
2023-04-21T04:10:57.543Z,47.10
2023-04-21T04:11:52.640Z,43.80
2023-04-21T04:12:47.832Z,89.00
2023-04-21T04:13:42.870Z,77.90
2023-04-21T04:14:38.004Z,58.10
2023-04-21T04:15:32.973Z,68.50
2023-04-21T04:16:28.084Z,47.10
2023-04-21T04:17:27.396Z,60.00
2023-04-21T04:18:22.181Z,64.80
2023-04-21T04:19:17.440Z,85.40
2023-04-21T04:20:12.307Z,95.10
2023-04-21T04:21:08.274Z,87.90
2023-04-21T04:22:03.580Z,63.40
2023-04-21T04:22:58.966Z,72.00
2023-04-21T04:23:54.317Z,95.60
2023-04-21T04:24:50.081Z,47.40
2023-04-21T04:25:45.448Z,43.50
2023-04-21T04:26:40.779Z,45.20
2023-04-21T04:27:36.318Z,48.60
2023-04-21T04:28:31.349Z,91.50
2023-04-21T04:29:26.686Z,54.60
2023-04-21T04:30:21.973Z,57.40
2023-04-21T04:31:17.431Z,70.00
2023-04-21T04:32:12.841Z,44.40
2023-04-21T04:33:08.175Z,41.50
2023-04-21T04:34:03.411Z,36.90
2023-04-21T04:34:58.876Z,49.10
2023-04-21T04:35:54.228Z,41.90
2023-04-21T04:36:49.632Z,40.20
2023-04-21T04:37:45.094Z,37.60
2023-04-21T04:38:40.225Z,56.20
2023-04-21T04:39:35.642Z,53.70
2023-04-21T04:40:31.081Z,53.70
2023-04-21T04:41:26.339Z,50.40
2023-04-21T04:42:21.808Z,48.60
2023-04-21T04:43:17.080Z,51.70
2023-04-21T04:44:12.114Z,44.80
2023-04-21T04:45:07.168Z,56.70
2023-04-21T04:46:02.277Z,45.00
2023-04-21T04:46:57.481Z,52.10
2023-04-21T04:47:52.419Z,48.70
2023-04-21T04:48:47.380Z,72.00
2023-04-21T04:49:42.404Z,53.80
2023-04-21T04:50:37.436Z,51.10
2023-04-21T04:51:38.488Z,68.80
2023-04-21T04:52:34.185Z,44.00
2023-04-21T04:53:29.369Z,55.40
2023-04-21T04:54:25.075Z,43.90
2023-04-21T04:55:20.539Z,42.00
2023-04-21T04:56:15.785Z,33.90
2023-04-21T04:57:12.336Z,32.20
2023-04-21T04:58:07.594Z,37.20
2023-04-21T04:59:03.442Z,36.00
2023-04-21T04:59:58.774Z,36.30
2023-04-21T05:00:54.200Z,31.60
2023-04-21T05:01:49.944Z,34.50
2023-04-21T05:02:45.502Z,33.30
2023-04-21T05:03:41.277Z,36.80
2023-04-21T05:04:36.662Z,33.00
2023-04-21T05:05:31.961Z,32.40
2023-04-21T05:06:27.820Z,30.80
2023-04-21T05:07:23.404Z,30.50
2023-04-21T05:08:18.811Z,37.30
2023-04-21T05:09:14.980Z,36.30
2023-04-21T05:10:10.389Z,34.60
2023-04-21T05:11:06.255Z,38.50
2023-04-21T05:12:02.001Z,47.30
2023-04-21T05:12:57.330Z,40.60
2023-04-21T05:13:53.169Z,32.50
2023-04-21T05:14:48.479Z,42.30
2023-04-21T05:15:44.429Z,41.40
2023-04-21T05:16:39.665Z,36.10
2023-04-21T05:17:35.238Z,32.20
2023-04-21T05:18:30.725Z,34.40
2023-04-21T05:19:26.219Z,37.20
2023-04-21T05:20:21.684Z,35.90
2023-04-21T05:21:17.888Z,38.60
2023-04-21T05:22:13.263Z,37.60
2023-04-21T05:23:09.212Z,34.30
2023-04-21T05:24:04.521Z,38.60
2023-04-21T05:25:00.011Z,34.40
2023-04-21T05:25:55.781Z,40.00
2023-04-21T05:26:51.303Z,51.50
2023-04-21T05:27:47.205Z,43.40
2023-04-21T05:28:42.459Z,59.90
2023-04-21T05:29:37.787Z,48.40
2023-04-21T05:30:33.590Z,52.30
2023-04-21T05:31:28.938Z,42.20
2023-04-21T05:32:24.663Z,48.70
2023-04-21T05:33:20.727Z,48.30
2023-04-21T05:34:16.207Z,49.30
2023-04-21T05:35:12.076Z,52.30
2023-04-21T05:36:07.564Z,42.00
2023-04-21T05:37:02.923Z,58.00
2023-04-21T05:37:58.737Z,39.70
2023-04-21T05:38:54.119Z,50.80
2023-04-21T05:39:50.040Z,39.60
2023-04-21T05:40:45.234Z,39.40
2023-04-21T05:41:40.786Z,37.50
2023-04-21T05:42:36.483Z,44.30
2023-04-21T05:43:31.829Z,36.60
2023-04-21T05:44:27.293Z,35.50
2023-04-21T05:45:23.509Z,34.30
2023-04-21T05:46:18.923Z,37.20
2023-04-21T05:47:14.707Z,38.70
2023-04-21T05:48:12.937Z,40.40
2023-04-21T05:49:05.502Z,40.00
2023-04-21T05:50:00.464Z,44.20
2023-04-21T05:50:55.540Z,39.60
2023-04-21T05:51:50.527Z,42.00
2023-04-21T05:52:45.611Z,41.00
2023-04-21T05:53:40.779Z,48.30
2023-04-21T05:54:35.712Z,34.20
2023-04-21T05:55:30.681Z,44.20
2023-04-21T05:56:25.721Z,53.30
2023-04-21T05:57:20.730Z,37.60
2023-04-21T05:58:15.833Z,44.10
2023-04-21T05:59:10.920Z,48.60
2023-04-21T06:00:05.982Z,37.30
2023-04-21T06:01:04.884Z,38.70
2023-04-21T06:02:00.068Z,39.00
2023-04-21T06:02:55.190Z,36.90
2023-04-21T06:03:50.734Z,41.10
2023-04-21T06:04:45.361Z,47.30
2023-04-21T06:05:40.316Z,39.90
2023-04-21T06:06:35.285Z,52.80
2023-04-21T06:07:30.317Z,45.00
2023-04-21T06:08:25.336Z,50.50
2023-04-21T06:09:20.548Z,46.60
2023-04-21T06:10:15.829Z,42.90
2023-04-21T06:11:11.304Z,36.40
2023-04-21T06:12:07.245Z,42.00
2023-04-21T06:13:02.795Z,42.10
2023-04-21T06:13:58.456Z,42.90
2023-04-21T06:14:54.019Z,39.70
2023-04-21T06:15:49.439Z,38.50
2023-04-21T06:16:44.944Z,40.20
2023-04-21T06:17:40.329Z,68.80
2023-04-21T06:18:35.347Z,76.40
2023-04-21T06:19:30.558Z,53.60
2023-04-21T06:20:25.470Z,44.50
2023-04-21T06:21:20.485Z,46.80
2023-04-21T06:22:15.520Z,49.50
2023-04-21T06:23:10.486Z,37.80
2023-04-21T06:24:05.522Z,41.80
2023-04-21T06:25:00.770Z,46.70
2023-04-21T06:25:55.517Z,41.20
2023-04-21T06:26:50.483Z,47.70
2023-04-21T06:27:45.524Z,36.60
2023-04-21T06:28:40.480Z,37.50
2023-04-21T06:29:35.817Z,30.10
2023-04-21T06:30:30.831Z,36.00
2023-04-21T06:31:25.992Z,33.60
2023-04-21T06:32:21.013Z,30.80
2023-04-21T06:33:16.259Z,30.00
2023-04-21T06:34:11.609Z,34.40
2023-04-21T06:35:07.069Z,36.90
2023-04-21T06:36:03.005Z,39.30
2023-04-21T06:36:58.545Z,35.50
2023-04-21T06:37:54.225Z,32.60
2023-04-21T06:38:49.771Z,35.00
2023-04-21T06:39:45.318Z,30.20
2023-04-21T06:40:41.218Z,37.90
2023-04-21T06:41:36.587Z,41.40
2023-04-21T06:42:32.180Z,46.30
2023-04-21T06:43:28.310Z,40.70
2023-04-21T06:44:23.747Z,45.30
2023-04-21T06:45:19.542Z,45.50
2023-04-21T06:46:14.989Z,45.40
2023-04-21T06:47:10.420Z,44.90
2023-04-21T06:48:06.147Z,39.00
2023-04-21T06:49:01.613Z,42.00
2023-04-21T06:49:57.702Z,39.30
2023-04-21T06:50:52.861Z,39.40
2023-04-21T06:51:48.266Z,36.00
2023-04-21T06:52:43.967Z,33.40
2023-04-21T06:53:39.496Z,36.40
2023-04-21T06:54:35.015Z,37.60
2023-04-21T06:55:31.155Z,30.50
2023-04-21T06:57:51.132Z,23.90
2023-04-21T06:58:46.476Z,29.70
2023-04-21T06:59:42.031Z,27.00
2023-04-21T07:00:37.272Z,26.00
2023-04-21T07:01:32.864Z,29.00
2023-04-21T07:02:28.497Z,28.50
2023-04-21T07:03:23.841Z,28.30
2023-04-21T07:04:19.157Z,25.70
2023-04-21T07:05:14.536Z,23.80
2023-04-21T07:06:09.911Z,26.20
2023-04-21T07:07:05.616Z,25.80
2023-04-21T07:08:00.963Z,32.70
2023-04-21T07:08:56.380Z,21.00
2023-04-21T07:09:51.954Z,29.40
2023-04-21T07:10:47.222Z,25.50
2023-04-21T07:11:42.599Z,23.50
2023-04-21T07:12:38.122Z,22.60
2023-04-21T07:13:33.618Z,25.00
2023-04-21T07:14:29.191Z,20.70
2023-04-21T07:15:24.513Z,23.30
2023-04-21T07:16:20.223Z,26.20
2023-04-21T07:17:15.599Z,20.60
2023-04-21T07:18:11.155Z,22.80
2023-04-21T07:19:06.661Z,25.60
2023-04-21T07:20:02.090Z,20.30
2023-04-21T07:20:57.412Z,22.90
2023-04-21T07:21:53.122Z,21.10
2023-04-21T07:22:48.399Z,20.90
2023-04-21T07:23:43.791Z,23.00
2023-04-21T07:24:39.220Z,23.10
2023-04-21T07:25:34.566Z,18.90
2023-04-21T07:26:30.242Z,25.90
2023-04-21T07:27:25.616Z,23.90
2023-04-21T07:28:21.157Z,19.10
2023-04-21T07:29:16.734Z,22.70
2023-04-21T07:30:12.124Z,23.10
2023-04-21T07:31:07.523Z,23.40
2023-04-21T07:32:02.916Z,22.30
2023-04-21T07:32:58.333Z,26.70
2023-04-21T07:33:53.893Z,24.90
2023-04-21T07:34:49.084Z,23.40
2023-04-21T07:35:44.506Z,21.90
2023-04-21T07:36:39.884Z,21.50
2023-04-21T07:37:35.576Z,20.70
2023-04-21T07:38:30.946Z,24.60
2023-04-21T07:39:26.484Z,22.50
2023-04-21T07:40:22.007Z,24.20
2023-04-21T07:41:17.440Z,24.40
2023-04-21T07:42:12.906Z,46.60
2023-04-21T07:43:08.447Z,52.70
2023-04-21T07:44:03.866Z,26.60
2023-04-21T07:44:59.574Z,26.30
2023-04-21T07:45:54.993Z,21.20
2023-04-21T07:46:50.422Z,22.80
2023-04-21T07:47:45.837Z,34.00
2023-04-21T07:48:41.342Z,37.60
2023-04-21T07:49:36.622Z,61.10
2023-04-21T07:50:32.011Z,62.70
2023-04-21T07:51:27.418Z,31.50
2023-04-21T07:52:22.941Z,24.60
2023-04-21T07:53:18.434Z,27.90
2023-04-21T07:54:13.858Z,26.70
2023-04-21T07:55:09.282Z,22.80
2023-04-21T07:56:05.360Z,24.50
2023-04-21T07:57:00.718Z,20.60
2023-04-21T07:57:56.255Z,21.00
2023-04-21T07:58:51.614Z,19.00
2023-04-21T07:59:47.217Z,20.90
2023-04-21T08:00:42.045Z,22.30
2023-04-21T08:01:37.126Z,22.20
2023-04-21T08:02:32.236Z,21.20
2023-04-21T08:03:27.495Z,23.60
2023-04-21T08:04:22.501Z,25.20
2023-04-21T08:05:17.484Z,25.30
2023-04-21T08:07:38.150Z,21.70
2023-04-21T08:08:33.457Z,24.00
2023-04-21T08:09:30.642Z,23.50
2023-04-21T08:10:24.603Z,24.00
2023-04-21T08:11:19.974Z,22.00
2023-04-21T08:12:15.526Z,25.30
2023-04-21T08:13:10.991Z,24.30
2023-04-21T08:14:06.715Z,22.10
2023-04-21T08:15:02.036Z,21.50
2023-04-21T08:15:57.568Z,21.80
2023-04-21T08:16:54.648Z,22.70
2023-04-21T08:17:48.699Z,18.80
2023-04-21T08:18:44.104Z,23.00
2023-04-21T08:19:39.841Z,40.80
2023-04-21T08:20:35.237Z,22.80
2023-04-21T08:21:31.456Z,22.70
2023-04-21T08:22:26.142Z,21.20
2023-04-21T08:23:21.621Z,21.80
2023-04-21T08:24:17.107Z,22.20
2023-04-21T08:25:12.487Z,21.60
2023-04-21T08:26:08.019Z,17.70
2023-04-21T08:27:03.361Z,18.60
2023-04-21T08:27:58.857Z,22.90
2023-04-21T08:28:54.418Z,16.40
2023-04-21T08:29:49.753Z,20.50
2023-04-21T08:30:45.293Z,18.40
2023-04-21T08:31:40.640Z,22.20
2023-04-21T08:32:36.061Z,20.20
2023-04-21T08:33:31.469Z,19.20
2023-04-21T08:34:27.905Z,20.50
2023-04-21T08:35:22.415Z,23.30
2023-04-21T08:36:28.511Z,21.50
2023-04-21T08:37:14.454Z,20.80
2023-04-21T08:38:09.000Z,19.90
2023-04-21T08:39:04.397Z,17.30
2023-04-21T08:40:00.012Z,19.50
2023-04-21T08:40:55.299Z,19.90
2023-04-21T08:41:50.773Z,23.10
2023-04-21T08:42:46.348Z,17.20
2023-04-21T08:43:41.658Z,22.30
2023-04-21T08:44:37.132Z,23.50
2023-04-21T08:45:32.894Z,18.20
2023-04-21T08:46:28.455Z,19.80
2023-04-21T08:47:23.809Z,18.80
2023-04-21T08:48:19.207Z,16.70
2023-04-21T08:49:14.794Z,20.40
2023-04-21T08:50:10.379Z,17.70
2023-04-21T08:51:05.864Z,19.50
2023-04-21T08:52:01.299Z,19.20
2023-04-21T08:52:56.821Z,19.90
2023-04-21T08:53:52.341Z,27.80
2023-04-21T08:54:47.882Z,54.20
2023-04-21T08:55:43.227Z,33.30
2023-04-21T08:56:38.709Z,38.80
2023-04-21T08:57:34.212Z,37.60
2023-04-21T08:58:29.572Z,57.90
2023-04-21T08:59:24.887Z,20.70
2023-04-21T09:00:20.587Z,20.70
2023-04-21T09:01:15.791Z,21.70
2023-04-21T09:02:11.364Z,18.40
2023-04-21T09:03:13.216Z,18.10
2023-04-21T09:04:03.499Z,19.40
2023-04-21T09:04:58.206Z,26.30
2023-04-21T09:05:53.576Z,20.00
2023-04-21T09:06:49.015Z,21.40
2023-04-21T09:07:44.533Z,21.40
2023-04-21T09:08:40.126Z,20.20
2023-04-21T09:09:35.490Z,19.30
2023-04-21T09:10:30.981Z,19.60
2023-04-21T09:11:26.484Z,53.80
2023-04-21T09:12:21.963Z,39.10
2023-04-21T09:13:17.338Z,31.70
2023-04-21T09:14:12.821Z,30.60
2023-04-21T09:15:08.335Z,23.00
2023-04-21T09:16:05.164Z,22.10
2023-04-21T09:16:59.175Z,21.70
2023-04-21T09:17:54.549Z,20.00
2023-04-21T09:18:50.004Z,22.40
2023-04-21T09:19:45.541Z,23.70
2023-04-21T09:20:41.075Z,42.00
2023-04-21T09:21:36.654Z,51.30
2023-04-21T09:22:32.143Z,64.10
2023-04-21T09:23:27.514Z,44.60
2023-04-21T09:24:23.012Z,24.70
2023-04-21T09:25:18.589Z,60.70
2023-04-21T09:26:13.940Z,34.50
2023-04-21T09:27:09.397Z,68.80
2023-04-21T09:28:05.164Z,49.00
2023-04-21T09:29:00.650Z,60.30
2023-04-21T09:29:56.141Z,22.40
2023-04-21T09:30:51.841Z,25.20
2023-04-21T09:31:46.936Z,29.70
2023-04-21T09:32:42.401Z,25.70
2023-04-21T09:33:46.107Z,30.00
2023-04-21T09:34:34.210Z,37.60
2023-04-21T09:35:28.818Z,74.40
2023-04-21T09:36:24.167Z,36.00
2023-04-21T09:37:19.689Z,50.10
2023-04-21T09:38:15.320Z,27.10
2023-04-21T09:40:06.103Z,54.10
2023-04-21T09:41:01.636Z,59.00
2023-04-21T09:41:57.136Z,44.20
2023-04-21T09:42:52.603Z,18.80
2023-04-21T09:43:47.967Z,18.30
2023-04-21T09:44:50.900Z,22.10
2023-04-21T09:45:40.843Z,22.90
2023-04-21T09:46:34.252Z,18.30
2023-04-21T09:47:29.782Z,23.00
2023-04-21T09:48:25.390Z,18.30
2023-04-21T09:49:20.859Z,18.10
2023-04-21T09:50:17.007Z,15.80
2023-04-21T09:51:30.791Z,20.50
2023-04-21T09:52:18.670Z,17.30
2023-04-21T09:53:03.826Z,17.30
2023-04-21T09:53:58.359Z,29.80
2023-04-21T09:54:53.744Z,42.30
2023-04-21T09:55:49.221Z,54.90
2023-04-21T09:56:44.681Z,27.20
2023-04-21T09:57:40.060Z,27.30
2023-04-21T09:58:35.284Z,20.40
2023-04-21T09:59:30.792Z,14.60
2023-04-21T10:00:26.263Z,16.70
2023-04-21T10:01:21.854Z,17.60
2023-04-21T10:02:17.455Z,19.20
2023-04-21T10:03:12.927Z,20.30
2023-04-21T10:04:08.329Z,38.20
2023-04-21T10:05:04.036Z,41.10
2023-04-21T10:05:59.437Z,30.60
2023-04-21T10:06:54.881Z,32.90
2023-04-21T10:07:50.263Z,18.10
2023-04-21T10:08:45.590Z,20.00
2023-04-21T10:09:40.987Z,21.60
2023-04-21T10:10:36.570Z,18.00
2023-04-21T10:11:32.121Z,18.20
2023-04-21T10:12:27.427Z,14.60
2023-04-21T10:13:22.886Z,15.70
2023-04-21T10:14:18.652Z,16.50
2023-04-21T10:15:13.671Z,14.10
2023-04-21T10:16:09.172Z,15.10
2023-04-21T10:17:04.720Z,13.80
2023-04-21T10:18:00.067Z,15.20
2023-04-21T10:18:55.290Z,13.90
2023-04-21T10:19:50.760Z,13.70
2023-04-21T10:20:46.315Z,13.20
2023-04-21T10:21:41.672Z,15.60
2023-04-21T10:22:37.153Z,15.30
2023-04-21T10:23:32.658Z,12.60
2023-04-21T10:24:28.110Z,13.20
2023-04-21T10:25:23.566Z,15.80
2023-04-21T10:26:18.980Z,13.30
2023-04-21T10:27:14.514Z,13.10
2023-04-21T10:28:09.912Z,12.50
2023-04-21T10:29:05.273Z,16.00
2023-04-21T10:30:00.731Z,42.60
2023-04-21T10:30:56.200Z,41.40
2023-04-21T10:31:51.715Z,37.80
2023-04-21T10:32:47.282Z,35.30
2023-04-21T10:33:42.625Z,17.60
2023-04-21T10:34:38.148Z,12.00
2023-04-21T10:35:33.496Z,9.30
2023-04-21T10:36:28.960Z,26.60
2023-04-21T10:37:24.400Z,20.00
2023-04-21T10:38:19.826Z,11.20
2023-04-21T10:39:15.134Z,11.60
2023-04-21T10:40:10.564Z,11.60
2023-04-21T10:41:06.005Z,9.80
2023-04-21T10:42:01.509Z,10.60
2023-04-21T10:42:56.954Z,10.00
2023-04-21T10:43:52.528Z,9.20
2023-04-21T10:44:48.043Z,13.50
2023-04-21T10:45:43.446Z,14.80
2023-04-21T10:46:38.972Z,14.70
2023-04-21T10:47:34.639Z,11.80
2023-04-21T10:48:29.913Z,10.80
2023-04-21T10:49:25.368Z,10.70
2023-04-21T10:50:20.795Z,11.60
2023-04-21T10:51:16.196Z,11.70
2023-04-21T10:52:11.545Z,11.60
2023-04-21T10:53:06.978Z,12.10
2023-04-21T10:54:02.443Z,10.30
2023-04-21T10:54:57.914Z,9.60
2023-04-21T10:55:53.554Z,10.50
2023-04-21T10:56:48.984Z,12.90
2023-04-21T10:57:44.456Z,13.50
2023-04-21T10:58:39.831Z,20.90
2023-04-21T10:59:35.293Z,11.70
2023-04-21T11:00:30.696Z,10.70
2023-04-21T11:01:26.178Z,9.10
2023-04-21T11:02:21.695Z,9.70
2023-04-21T11:03:17.112Z,9.90
2023-04-21T11:04:12.489Z,10.10
2023-04-21T11:05:07.930Z,11.30
2023-04-21T11:06:03.120Z,9.60
2023-04-21T11:06:58.580Z,10.20
2023-04-21T11:07:54.071Z,9.60
2023-04-21T11:08:49.490Z,10.60
2023-04-21T11:09:45.000Z,8.60
2023-04-21T11:10:40.422Z,8.70
2023-04-21T11:11:35.901Z,8.70
2023-04-21T11:12:31.368Z,8.70
2023-04-21T11:13:26.739Z,9.30
2023-04-21T11:14:22.246Z,8.10
2023-04-21T11:15:17.535Z,8.40
2023-04-21T11:16:13.137Z,10.20
2023-04-21T11:17:08.678Z,9.50
2023-04-21T11:18:04.236Z,8.10
2023-04-21T11:18:59.584Z,8.30
2023-04-21T11:19:55.012Z,9.40
2023-04-21T11:20:50.379Z,10.90
2023-04-21T11:21:45.990Z,8.60
2023-04-21T11:22:41.373Z,8.20
2023-04-21T11:23:36.774Z,10.70
2023-04-21T11:24:32.206Z,10.70
2023-04-21T11:25:27.632Z,10.40
2023-04-21T11:26:23.017Z,8.90
2023-04-21T11:27:18.451Z,8.70
2023-04-21T11:28:13.803Z,7.50
2023-04-21T11:29:09.312Z,8.00
2023-04-21T11:30:04.650Z,8.70
2023-04-21T11:31:00.054Z,9.00
2023-04-21T11:31:55.386Z,9.60
2023-04-21T11:32:50.892Z,10.00
2023-04-21T11:33:46.326Z,16.60
2023-04-21T11:34:41.767Z,7.90
2023-04-21T11:35:37.225Z,8.70
2023-04-21T11:36:32.671Z,10.30
2023-04-21T11:37:28.386Z,9.00
2023-04-21T11:38:23.897Z,7.60
2023-04-21T11:39:21.337Z,8.40
2023-04-21T11:40:14.829Z,9.10
2023-04-21T11:41:10.575Z,8.30
2023-04-21T11:42:05.850Z,9.20
2023-04-21T11:43:01.365Z,7.70
2023-04-21T11:43:56.727Z,8.60
2023-04-21T11:44:52.213Z,8.40
2023-04-21T11:45:47.597Z,8.20
2023-04-21T11:46:42.983Z,7.30
2023-04-21T11:47:38.676Z,8.30
2023-04-21T11:48:33.871Z,7.40
2023-04-21T11:49:29.285Z,12.70
2023-04-21T11:50:24.772Z,16.30
2023-04-21T11:51:22.154Z,11.40
2023-04-21T11:52:15.674Z,8.70
2023-04-21T11:53:10.998Z,8.10
2023-04-21T11:54:06.347Z,7.10
2023-04-21T11:55:01.882Z,8.10
2023-04-21T11:55:57.543Z,7.10
2023-04-21T11:56:52.926Z,6.50
2023-04-21T11:57:48.124Z,6.80
2023-04-21T11:58:43.661Z,9.70
2023-04-21T11:59:38.982Z,7.70